Terminal Aerodrome Forecast
Issued by NWS

Home | Current Version | Previous Version | Text Only | Print | Product List | Glossary On
Versions: 1 2 3 4 5 6 7 8 9 10 11 12 13 14 15 16 17 18 19 20 21 22 23 24
000
FTUS42 KTAE 281700
TAFECP
TAF
KECP 281732Z 2818/0118 03010KT P6SM OVC015
     FM010000 04008KT P6SM OVC010
     FM010600 05008KT 6SM BR OVC006
     FM011500 06008KT P6SM OVC010=

USA.gov is the U.S. government's official web portal to all federal, state and local government web resources and services.